createdAt,value
2023-01-13T00:02:33.309Z,90.39
2023-01-13T00:05:22.008Z,91.72
2023-01-13T00:08:08.476Z,91.99
2023-01-13T00:10:55.041Z,92.26
2023-01-13T00:13:41.711Z,92.66
2023-01-13T00:16:28.111Z,92.84
2023-01-13T00:19:14.610Z,93.40
2023-01-13T00:22:00.847Z,93.39
2023-01-13T00:24:47.415Z,93.38
2023-01-13T00:27:33.795Z,93.80
2023-01-13T00:30:20.982Z,93.84
2023-01-13T00:33:07.415Z,94.13
2023-01-13T00:36:01.309Z,94.59
2023-01-13T00:38:48.634Z,94.67
2023-01-13T00:41:54.977Z,94.65
2023-01-13T00:44:41.525Z,94.52
2023-01-13T00:47:27.800Z,95.73
2023-01-13T00:50:14.443Z,95.25
2023-01-13T00:53:01.361Z,95.50
2023-01-13T00:55:47.807Z,95.35
2023-01-13T00:58:35.910Z,95.43
2023-01-13T01:01:23.798Z,95.76
2023-01-13T01:04:11.123Z,95.28
2023-01-13T01:06:57.722Z,94.90
2023-01-13T01:09:44.327Z,95.04
2023-01-13T01:12:30.646Z,94.53
2023-01-13T01:15:21.550Z,94.06
2023-01-13T01:18:08.277Z,95.10
2023-01-13T01:20:54.486Z,93.78
2023-01-13T01:23:42.063Z,93.76
2023-01-13T01:26:30.264Z,94.00
2023-01-13T01:29:16.747Z,93.81
2023-01-13T01:32:03.485Z,94.72
2023-01-13T01:34:51.136Z,93.95
2023-01-13T01:37:37.752Z,94.71
2023-01-13T01:40:26.959Z,94.25
2023-01-13T01:43:34.850Z,95.27
2023-01-13T01:46:21.176Z,95.22
2023-01-13T01:49:18.337Z,95.18
2023-01-13T01:52:26.123Z,96.72
2023-01-13T01:55:21.351Z,96.20
2023-01-13T01:58:14.568Z,95.99
2023-01-13T02:01:01.542Z,95.15
2023-01-13T02:03:59.339Z,95.04
2023-01-13T02:06:47.609Z,94.88
2023-01-13T02:09:35.916Z,94.63
2023-01-13T02:12:30.006Z,95.37
2023-01-13T02:15:27.805Z,94.67
2023-01-13T02:18:20.203Z,95.25
2023-01-13T02:21:29.168Z,95.23
2023-01-13T02:24:49.760Z,96.14
2023-01-13T02:27:45.341Z,96.13
2023-01-13T02:31:03.122Z,95.87
2023-01-13T02:34:00.683Z,96.57
2023-01-13T02:36:58.955Z,96.85
2023-01-13T02:40:09.915Z,97.42
2023-01-13T02:43:23.698Z,98.73
2023-01-13T02:46:32.962Z,98.93
2023-01-13T02:49:43.923Z,99.23
2023-01-13T02:52:38.143Z,99.80
2023-01-13T02:55:35.998Z,100.00
2023-01-13T02:58:28.101Z,100.00
2023-01-13T03:01:15.177Z,100.00
2023-01-13T03:04:12.951Z,100.00
2023-01-13T03:07:12.926Z,100.00
2023-01-13T03:10:10.355Z,100.00
2023-01-13T03:13:05.879Z,100.00
2023-01-13T03:16:28.246Z,100.00
2023-01-13T03:19:14.889Z,100.00
2023-01-13T03:22:27.099Z,100.00
2023-01-13T03:25:28.753Z,100.00
2023-01-13T03:28:25.463Z,100.00
2023-01-13T03:31:17.949Z,100.00
2023-01-13T03:34:09.800Z,100.00
2023-01-13T03:36:57.768Z,100.00
2023-01-13T03:39:50.213Z,100.00
2023-01-13T03:42:40.005Z,100.00
2023-01-13T03:45:27.406Z,100.00
2023-01-13T03:48:19.508Z,100.00
2023-01-13T03:51:09.990Z,100.00
2023-01-13T03:54:00.401Z,100.00
2023-01-13T03:56:53.299Z,100.00
2023-01-13T03:59:45.399Z,100.00
2023-01-13T04:02:42.980Z,100.00
2023-01-13T04:05:30.145Z,100.00
2023-01-13T04:08:26.263Z,100.00
2023-01-13T04:11:20.166Z,100.00
2023-01-13T04:14:09.173Z,100.00
2023-01-13T04:16:56.298Z,100.00
2023-01-13T04:19:42.868Z,100.00
2023-01-13T04:22:29.340Z,100.00
2023-01-13T04:25:16.269Z,100.00
2023-01-13T04:28:06.693Z,100.00
2023-01-13T04:30:53.507Z,100.00
2023-01-13T04:33:39.920Z,100.00
2023-01-13T04:36:27.684Z,100.00
2023-01-13T04:39:14.474Z,100.00
2023-01-13T04:42:02.491Z,100.00
2023-01-13T04:44:48.812Z,99.88
2023-01-13T04:47:34.996Z,99.84
2023-01-13T04:50:22.757Z,100.00
2023-01-13T04:53:09.605Z,100.00
2023-01-13T04:55:56.245Z,100.00
2023-01-13T04:58:42.760Z,99.59
2023-01-13T05:01:29.312Z,99.46
2023-01-13T05:04:17.114Z,99.21
2023-01-13T05:07:03.879Z,99.17
2023-01-13T05:09:50.495Z,99.66
2023-01-13T05:12:55.302Z,99.45
2023-01-13T05:16:01.872Z,99.18
2023-01-13T05:18:48.811Z,100.00
2023-01-13T05:21:53.967Z,99.46
2023-01-13T05:24:59.505Z,99.91
2023-01-13T05:27:45.993Z,98.88
2023-01-13T05:30:37.065Z,99.09
2023-01-13T05:33:23.726Z,99.72
2023-01-13T05:36:10.429Z,99.16
2023-01-13T05:38:57.034Z,98.29
2023-01-13T05:42:02.267Z,99.93
2023-01-13T05:44:48.694Z,99.37
2023-01-13T05:47:35.292Z,99.41
2023-01-13T05:50:21.660Z,98.96
2023-01-13T05:53:08.464Z,98.77
2023-01-13T05:55:55.065Z,98.96
2023-01-13T05:58:41.361Z,99.35
2023-01-13T06:01:27.840Z,99.02
2023-01-13T06:04:14.587Z,98.67
2023-01-13T06:07:01.343Z,98.56
2023-01-13T06:09:48.009Z,98.91
2023-01-13T06:12:34.797Z,98.86
2023-01-13T06:15:22.878Z,98.48
2023-01-13T06:18:09.560Z,99.22
2023-01-13T06:20:56.589Z,98.75
2023-01-13T06:23:42.836Z,98.93
2023-01-13T06:26:34.121Z,98.33
2023-01-13T06:29:20.784Z,98.42
2023-01-13T06:32:29.380Z,99.39
2023-01-13T06:35:25.454Z,99.31
2023-01-13T06:38:15.764Z,99.67
2023-01-13T06:41:02.713Z,99.41
2023-01-13T06:43:49.428Z,99.26
2023-01-13T06:46:36.284Z,100.00
2023-01-13T06:49:22.838Z,99.96
2023-01-13T06:52:09.537Z,99.19
2023-01-13T06:54:57.548Z,99.63
2023-01-13T06:57:55.767Z,100.00
2023-01-13T07:00:49.771Z,100.00
2023-01-13T07:03:36.331Z,100.00
2023-01-13T07:06:22.720Z,99.85
2023-01-13T07:09:09.414Z,100.00
2023-01-13T07:11:55.829Z,100.00
2023-01-13T07:15:00.843Z,99.93
2023-01-13T07:17:47.687Z,100.00
2023-01-13T07:20:33.996Z,100.00
2023-01-13T07:23:20.590Z,99.91
2023-01-13T07:26:09.202Z,99.94
2023-01-13T07:28:55.550Z,100.00
2023-01-13T07:31:42.217Z,100.00
2023-01-13T07:34:28.959Z,100.00
2023-01-13T07:37:15.656Z,99.32
2023-01-13T07:40:03.204Z,100.00
2023-01-13T07:43:08.029Z,99.38
2023-01-13T07:46:07.293Z,99.29
2023-01-13T07:48:53.641Z,99.81
2023-01-13T07:51:40.334Z,99.57
2023-01-13T07:54:39.714Z,99.97
2023-01-13T07:57:26.896Z,100.00
2023-01-13T08:00:14.390Z,100.00
2023-01-13T08:03:01.228Z,100.00
2023-01-13T08:05:48.417Z,100.00
2023-01-13T08:08:35.275Z,100.00
2023-01-13T08:11:23.577Z,100.00
2023-01-13T08:14:09.986Z,100.00
2023-01-13T08:16:56.713Z,100.00
2023-01-13T08:19:43.425Z,100.00
2023-01-13T08:22:31.082Z,100.00
2023-01-13T08:25:23.773Z,100.00
2023-01-13T08:28:10.342Z,100.00
2023-01-13T08:31:00.343Z,100.00
2023-01-13T08:33:47.049Z,100.00
2023-01-13T08:36:33.544Z,100.00
2023-01-13T08:39:20.213Z,100.00
2023-01-13T08:42:06.651Z,100.00
2023-01-13T08:44:54.839Z,100.00
2023-01-13T08:47:42.749Z,100.00
2023-01-13T08:50:30.853Z,100.00
2023-01-13T08:53:18.742Z,100.00
2023-01-13T08:56:13.201Z,100.00
2023-01-13T08:59:00.699Z,100.00
2023-01-13T09:01:47.263Z,100.00
2023-01-13T09:04:34.076Z,100.00
2023-01-13T09:07:21.039Z,100.00
2023-01-13T09:10:08.522Z,100.00
2023-01-13T09:13:13.151Z,100.00
2023-01-13T09:15:59.714Z,100.00
2023-01-13T09:18:46.162Z,100.00
2023-01-13T09:21:32.848Z,100.00
2023-01-13T09:24:20.486Z,100.00
2023-01-13T09:27:06.791Z,100.00
2023-01-13T09:29:53.295Z,100.00
2023-01-13T09:32:41.056Z,100.00
2023-01-13T09:35:27.527Z,100.00
2023-01-13T09:38:14.101Z,100.00
2023-01-13T09:41:00.889Z,100.00
2023-01-13T09:43:55.626Z,100.00
2023-01-13T09:46:49.563Z,100.00
2023-01-13T09:49:39.990Z,100.00
2023-01-13T09:52:27.773Z,100.00
2023-01-13T09:55:30.245Z,100.00
2023-01-13T09:58:18.564Z,100.00
2023-01-13T10:01:59.333Z,100.00
2023-01-13T10:05:22.117Z,100.00
2023-01-13T10:08:12.641Z,100.00
2023-01-13T10:11:22.291Z,100.00
2023-01-13T10:14:18.087Z,100.00
2023-01-13T10:17:11.879Z,100.00
2023-01-13T10:20:16.823Z,100.00
2023-01-13T10:23:41.990Z,100.00
2023-01-13T10:26:40.378Z,100.00
2023-01-13T10:29:29.605Z,100.00
2023-01-13T10:32:16.221Z,100.00
2023-01-13T10:35:02.788Z,100.00
2023-01-13T10:37:57.636Z,100.00
2023-01-13T10:40:49.867Z,100.00
2023-01-13T10:43:36.026Z,100.00
2023-01-13T10:46:22.552Z,100.00
2023-01-13T10:49:27.858Z,100.00
2023-01-13T10:52:31.806Z,100.00
2023-01-13T10:55:30.599Z,100.00
2023-01-13T10:58:21.609Z,100.00
2023-01-13T11:01:27.166Z,100.00
2023-01-13T11:04:42.551Z,100.00
2023-01-13T11:07:34.105Z,100.00
2023-01-13T11:10:33.304Z,100.00
2023-01-13T11:13:28.303Z,100.00
2023-01-13T11:16:18.068Z,100.00
2023-01-13T11:19:12.994Z,100.00
2023-01-13T11:22:06.262Z,100.00
2023-01-13T11:24:56.338Z,100.00
2023-01-13T11:27:59.675Z,100.00
2023-01-13T11:30:56.516Z,100.00
2023-01-13T11:33:43.147Z,100.00
2023-01-13T11:36:38.661Z,100.00
2023-01-13T11:39:43.076Z,100.00
2023-01-13T11:42:46.925Z,100.00
2023-01-13T11:45:56.285Z,100.00
2023-01-13T11:48:43.504Z,100.00
2023-01-13T11:51:38.490Z,100.00
2023-01-13T11:54:43.740Z,100.00
2023-01-13T11:57:45.893Z,100.00
2023-01-13T12:01:03.223Z,100.00
2023-01-13T12:04:21.455Z,100.00
2023-01-13T12:07:34.558Z,100.00
2023-01-13T12:10:54.677Z,100.00
2023-01-13T12:14:02.892Z,100.00
2023-01-13T12:16:50.993Z,100.00
2023-01-13T12:19:37.584Z,100.00
2023-01-13T12:22:29.867Z,98.75
2023-01-13T12:25:22.015Z,97.54
2023-01-13T12:28:20.145Z,96.66
2023-01-13T12:31:09.468Z,98.27
2023-01-13T12:34:24.767Z,95.07
2023-01-13T12:37:43.067Z,96.24
2023-01-13T12:40:47.013Z,100.00
2023-01-13T12:43:52.762Z,100.00
2023-01-13T12:46:53.185Z,100.00
2023-01-13T12:49:39.524Z,100.00
2023-01-13T12:52:26.399Z,100.00
2023-01-13T12:55:16.219Z,100.00
2023-01-13T12:58:11.023Z,100.00
2023-01-13T13:01:01.291Z,100.00
2023-01-13T13:04:09.843Z,100.00
2023-01-13T13:07:13.021Z,100.00
2023-01-13T13:10:05.087Z,100.00
2023-01-13T13:13:13.333Z,100.00
2023-01-13T13:16:25.460Z,100.00
2023-01-13T13:19:18.032Z,100.00
2023-01-13T13:22:14.098Z,100.00
2023-01-13T13:25:03.450Z,100.00
2023-01-13T13:28:03.206Z,97.38
2023-01-13T13:31:02.913Z,95.77
2023-01-13T13:34:21.825Z,95.88
2023-01-13T13:37:21.698Z,93.49
2023-01-13T13:40:30.161Z,93.99
2023-01-13T13:43:36.390Z,92.03
2023-01-13T13:46:47.084Z,93.48
2023-01-13T13:49:39.708Z,94.60
2023-01-13T13:52:43.269Z,96.01
2023-01-13T13:55:30.183Z,100.00
2023-01-13T13:58:18.137Z,100.00
2023-01-13T14:01:05.447Z,100.00
2023-01-13T14:04:25.672Z,97.99
2023-01-13T14:07:23.351Z,97.99
2023-01-13T14:10:22.193Z,95.69
2023-01-13T14:13:17.712Z,94.68
2023-01-13T14:16:13.963Z,94.72
2023-01-13T14:19:00.585Z,95.83
2023-01-13T14:21:48.238Z,97.25
2023-01-13T14:24:46.684Z,97.33
2023-01-13T14:27:34.391Z,96.88
2023-01-13T14:30:24.414Z,95.72
2023-01-13T14:33:16.466Z,95.31
2023-01-13T14:36:22.445Z,94.44
2023-01-13T14:39:10.412Z,93.65
2023-01-13T14:41:57.076Z,95.70
2023-01-13T14:45:02.639Z,95.50
2023-01-13T14:47:53.702Z,94.84
2023-01-13T14:50:40.150Z,95.16
2023-01-13T14:53:39.665Z,95.78
2023-01-13T14:56:44.440Z,95.51
2023-01-13T14:59:42.451Z,97.50
2023-01-13T15:02:33.565Z,99.91
2023-01-13T15:05:22.972Z,100.00
2023-01-13T15:08:13.917Z,100.00
2023-01-13T15:11:03.178Z,100.00
2023-01-13T15:14:02.334Z,100.00
2023-01-13T15:16:48.457Z,100.00
2023-01-13T15:19:34.867Z,100.00
2023-01-13T15:22:21.623Z,100.00
2023-01-13T15:25:10.666Z,100.00
2023-01-13T15:27:56.945Z,100.00
2023-01-13T15:30:43.175Z,100.00
2023-01-13T15:33:29.450Z,100.00
2023-01-13T15:36:26.582Z,100.00
2023-01-13T15:39:13.258Z,100.00
2023-01-13T15:42:18.648Z,100.00
2023-01-13T15:45:24.538Z,100.00
2023-01-13T15:48:11.444Z,100.00
2023-01-13T15:50:58.119Z,100.00
2023-01-13T15:53:44.792Z,100.00
2023-01-13T15:56:33.768Z,100.00
2023-01-13T15:59:26.805Z,100.00
2023-01-13T16:02:15.939Z,100.00
2023-01-13T16:05:02.620Z,100.00
2023-01-13T16:07:49.198Z,100.00
2023-01-13T16:10:35.710Z,100.00
2023-01-13T16:13:22.220Z,100.00
2023-01-13T16:16:18.990Z,100.00
2023-01-13T16:19:05.233Z,100.00
2023-01-13T16:21:53.022Z,100.00
2023-01-13T16:24:39.575Z,100.00
2023-01-13T16:27:26.310Z,100.00
2023-01-13T16:30:35.517Z,100.00
2023-01-13T16:33:21.917Z,100.00
2023-01-13T16:36:14.669Z,100.00
2023-01-13T16:39:02.051Z,100.00
2023-01-13T16:41:50.053Z,100.00
2023-01-13T16:44:36.208Z,100.00
2023-01-13T16:47:24.317Z,100.00
2023-01-13T16:50:28.938Z,100.00
2023-01-13T16:53:15.827Z,100.00
2023-01-13T16:56:02.531Z,100.00
2023-01-13T16:58:49.571Z,100.00
2023-01-13T17:01:39.728Z,100.00
2023-01-13T17:04:26.137Z,100.00
2023-01-13T17:07:16.630Z,100.00
2023-01-13T17:10:03.727Z,100.00
2023-01-13T17:12:50.948Z,100.00
2023-01-13T17:15:38.760Z,100.00
2023-01-13T17:18:24.887Z,100.00
2023-01-13T17:21:12.123Z,100.00
2023-01-13T17:23:59.366Z,100.00
2023-01-13T17:26:50.362Z,100.00
2023-01-13T17:29:36.679Z,100.00
2023-01-13T17:32:23.303Z,100.00
2023-01-13T17:35:12.821Z,100.00
2023-01-13T17:37:59.109Z,100.00
2023-01-13T17:40:45.315Z,100.00
2023-01-13T17:43:32.221Z,100.00
2023-01-13T17:46:19.843Z,98.74
2023-01-13T17:49:06.585Z,98.77
2023-01-13T17:51:53.296Z,98.74
2023-01-13T17:54:43.001Z,99.03
2023-01-13T17:57:29.481Z,98.95
2023-01-13T18:00:16.519Z,99.36
2023-01-13T18:03:03.068Z,99.55
2023-01-13T18:05:49.630Z,100.00
2023-01-13T18:08:36.252Z,100.00
2023-01-13T18:11:23.206Z,100.00
2023-01-13T18:14:10.676Z,100.00
2023-01-13T18:16:57.137Z,100.00
2023-01-13T18:20:02.188Z,100.00
2023-01-13T18:23:07.297Z,99.63
2023-01-13T18:26:15.839Z,99.93
2023-01-13T18:29:18.057Z,100.00
2023-01-13T18:32:17.018Z,98.69
2023-01-13T18:35:44.468Z,98.68
2023-01-13T18:38:31.271Z,97.93
2023-01-13T18:41:35.950Z,97.87
2023-01-13T18:44:22.189Z,98.42
2023-01-13T18:47:08.824Z,98.88
2023-01-13T18:49:56.939Z,99.45
2023-01-13T18:52:46.555Z,100.00
2023-01-13T18:55:32.867Z,100.00
2023-01-13T19:05:52.215Z,100.00
2023-01-13T19:08:38.524Z,100.00
2023-01-13T19:11:25.250Z,100.00
2023-01-13T19:14:13.441Z,100.00
2023-01-13T19:17:10.965Z,100.00
2023-01-13T19:19:58.332Z,100.00
2023-01-13T19:22:46.190Z,100.00
2023-01-13T19:25:32.757Z,100.00
2023-01-13T19:28:19.097Z,100.00
2023-01-13T19:31:07.692Z,99.50
2023-01-13T19:33:54.070Z,99.50
2023-01-13T19:36:40.796Z,99.02
2023-01-13T19:39:27.378Z,99.05
2023-01-13T19:42:33.058Z,99.51
2023-01-13T19:45:33.849Z,100.00
2023-01-13T19:48:21.268Z,100.00
2023-01-13T19:51:07.846Z,99.93
2023-01-13T19:53:53.971Z,100.00
2023-01-13T19:56:40.530Z,100.00
2023-01-13T19:59:29.874Z,100.00
2023-01-13T20:02:28.047Z,100.00
2023-01-13T20:05:25.024Z,100.00
2023-01-13T20:08:11.677Z,100.00
2023-01-13T20:11:18.427Z,100.00
2023-01-13T20:14:04.926Z,100.00
2023-01-13T20:16:51.696Z,100.00
2023-01-13T20:19:41.684Z,100.00
2023-01-13T20:22:28.259Z,100.00
2023-01-13T20:25:30.121Z,100.00
2023-01-13T20:28:16.925Z,100.00
2023-01-13T20:31:11.126Z,100.00
2023-01-13T20:33:57.418Z,100.00
2023-01-13T20:36:44.126Z,100.00
2023-01-13T20:39:31.255Z,100.00
2023-01-13T20:42:29.953Z,100.00
2023-01-13T20:45:23.876Z,100.00
2023-01-13T20:48:10.352Z,100.00
2023-01-13T20:50:59.411Z,100.00
2023-01-13T20:53:49.112Z,100.00
2023-01-13T20:56:36.411Z,100.00
2023-01-13T20:59:23.214Z,100.00
2023-01-13T21:02:14.798Z,100.00
2023-01-13T21:05:01.313Z,100.00
2023-01-13T21:07:48.288Z,100.00
2023-01-13T21:10:34.868Z,100.00
2023-01-13T21:13:39.680Z,100.00
2023-01-13T21:16:26.196Z,100.00
2023-01-13T21:19:12.625Z,100.00
2023-01-13T21:21:59.332Z,100.00
2023-01-13T21:24:45.836Z,100.00
2023-01-13T21:27:32.786Z,100.00
2023-01-13T21:30:19.186Z,100.00
2023-01-13T21:33:06.228Z,100.00
2023-01-13T21:35:52.625Z,100.00
2023-01-13T21:38:39.424Z,100.00
2023-01-13T21:41:45.631Z,100.00
2023-01-13T21:44:50.720Z,100.00
2023-01-13T21:47:49.470Z,100.00
2023-01-13T21:50:37.916Z,100.00
2023-01-13T21:53:24.748Z,100.00
2023-01-13T21:56:11.214Z,100.00
2023-01-13T21:58:58.083Z,100.00
2023-01-13T22:02:22.328Z,100.00
2023-01-13T22:04:50.950Z,100.00
2023-01-13T22:07:39.808Z,100.00
2023-01-13T22:10:29.925Z,100.00
2023-01-13T22:13:34.595Z,100.00
2023-01-13T22:16:21.227Z,100.00
2023-01-13T22:19:09.338Z,100.00
2023-01-13T22:21:56.804Z,100.00
2023-01-13T22:24:43.714Z,100.00
2023-01-13T22:27:30.873Z,100.00
2023-01-13T22:30:21.607Z,100.00
2023-01-13T22:33:08.013Z,100.00
2023-01-13T22:35:55.980Z,100.00
2023-01-13T22:38:42.409Z,100.00
2023-01-13T22:41:28.752Z,100.00
2023-01-13T22:44:15.418Z,100.00
2023-01-13T22:47:02.107Z,100.00
2023-01-13T22:49:49.036Z,100.00
2023-01-13T22:52:35.565Z,100.00
2023-01-13T22:55:23.439Z,100.00
2023-01-13T22:58:11.903Z,100.00
2023-01-13T23:01:17.560Z,100.00
2023-01-13T23:04:04.853Z,100.00
2023-01-13T23:06:51.470Z,100.00
2023-01-13T23:09:37.735Z,100.00
2023-01-13T23:12:24.241Z,100.00
2023-01-13T23:15:11.334Z,100.00
2023-01-13T23:17:57.941Z,100.00
2023-01-13T23:20:44.294Z,100.00
2023-01-13T23:23:31.410Z,100.00
2023-01-13T23:26:23.342Z,100.00
2023-01-13T23:29:13.127Z,100.00
2023-01-13T23:31:59.748Z,100.00
2023-01-13T23:34:46.862Z,100.00
2023-01-13T23:37:34.410Z,100.00
2023-01-13T23:40:20.945Z,100.00
2023-01-13T23:43:07.629Z,100.00
2023-01-13T23:46:05.305Z,100.00
2023-01-13T23:48:52.033Z,100.00
2023-01-13T23:51:38.465Z,100.00
2023-01-13T23:54:25.079Z,100.00
2023-01-13T23:57:11.333Z,100.00
2023-01-13T23:59:57.615Z,100.00
